Eileen, Illinois
Current Conditions -  °F | °C
As of 12:35 PM on Saturday 25 Oct 2014 (Local Time) from KC09 Reporting Station
Clear Clear  
Wind Chill: 72°   Ceiling: Unl
Heat Index: 72°   Visibility: 10mi
Dew Point: 46°   Wind: 10mph
Humidity: 39%   Direction: 300°WNW
Pressure: 29.96"   Gusts: 17mph
Location:  41.2967°N, 88.2846°W
Report Text: KC09 251735Z AUTO 30009G15KT 280V010 10SM CLR 22/08 A2996 RMK AO2 T02240078
Loading
Personal Weather Stations






























Interactive Weather Map
Tropical Storm Tracking
New forecast layout! Learn more

10-Day Weather Forecast

Advertisements
Track Severe Weather on mobile